LICB/CIY METAR and TAF weather

Enter ICAO airport designator
Station Type Date Time Source
LICB METAR 2019/02/16 06:50 UTC NOAA

LICB 160650Z 33004KT 9999 FEW040 04/02 Q1026


Station Type Date Time Source
LICB Decoded METAR 2019/02/16 06:50 UTC NOAA

Comiso As Usaf , Italy (LICB) 36-56N 014-36E
Feb 16, 2019 - 01:50 AM EST / 2019.02.16 0650 UTC
Wind: from the NNW (330 degrees) at 5 MPH (4 KT):0
Visibility: greater than 7 mile(s):0
Sky conditions: mostly clear
Temperature: 39 F (4 C)
Dew Point: 35 F (2 C)
Relative Humidity: 86%
Pressure (altimeter): 30.30 in. Hg (1026 hPa)
ob: LICB 160650Z 33004KT 9999 FEW040 04/02 Q1026
cycle: 7

Station Type Date Time Source
LICB TAF UTC NOAA

Error!


Example: see airport list